CPX675 Details

Departure: Lynden Pindling International Airport (MYNN)
Arrival: Providenciales International Airport (MBPV)
Route: ZQA A555 MICAS G648 PVN


Current Weather Information
MYNN 251000Z 08005KT 060V120 9999 FEW035 23/18 A3003
MBPV 251000Z 05005KT 9999 SCT012 25/23 Q1013